createdAt,value
2022-10-22T00:01:13.970Z,95026.59
2022-10-22T00:03:42.100Z,95024.19
2022-10-22T00:06:10.187Z,95021.03
2022-10-22T00:08:38.288Z,95017.28
2022-10-22T00:11:11.124Z,95024.47
2022-10-22T00:13:41.017Z,95041.44
2022-10-22T00:16:09.580Z,95041.16
2022-10-22T00:18:37.852Z,95059.22
2022-10-22T00:21:07.135Z,95061.03
2022-10-22T00:23:35.287Z,95061.88
2022-10-22T00:26:03.290Z,95061.63
2022-10-22T00:28:31.287Z,95052.06
2022-10-22T00:31:02.519Z,95048.28
2022-10-22T00:33:31.053Z,95031.34
2022-10-22T00:35:59.508Z,95030.56
2022-10-22T00:38:27.615Z,95025.22
2022-10-22T00:40:55.999Z,95020.16
2022-10-22T00:43:24.179Z,95022.00
2022-10-22T00:45:52.301Z,95014.28
2022-10-22T00:48:24.640Z,95011.16
2022-10-22T00:50:57.523Z,95029.50
2022-10-22T00:53:30.339Z,95028.69
2022-10-22T00:55:58.502Z,95047.53
2022-10-22T00:58:30.773Z,95051.28
2022-10-22T01:00:59.333Z,95058.72
2022-10-22T01:03:29.769Z,95063.44
2022-10-22T01:06:00.296Z,95073.53
2022-10-22T01:08:39.948Z,95066.91
2022-10-22T01:11:16.529Z,95076.97
2022-10-22T01:13:55.145Z,95079.88
2022-10-22T01:16:32.389Z,95056.28
2022-10-22T01:19:15.052Z,95045.66
2022-10-22T01:21:46.657Z,95038.22
2022-10-22T01:24:36.758Z,95037.72
2022-10-22T01:27:26.250Z,95033.72
2022-10-22T01:29:59.209Z,95032.91
2022-10-22T01:32:29.413Z,95043.00
2022-10-22T01:35:02.747Z,95051.75
2022-10-22T01:37:34.070Z,95054.16
2022-10-22T01:40:03.677Z,95063.19
2022-10-22T01:42:31.717Z,95071.13
2022-10-22T01:45:01.114Z,95077.19
2022-10-22T01:47:40.294Z,95074.19
2022-10-22T01:50:29.207Z,95084.00
2022-10-22T01:53:08.705Z,95087.91
2022-10-22T01:55:44.767Z,95098.22
2022-10-22T01:58:25.751Z,95092.66
2022-10-22T02:01:01.222Z,95105.59
2022-10-22T02:03:39.712Z,95103.47
2022-10-22T02:06:13.940Z,95100.00
2022-10-22T02:08:43.276Z,95107.41
2022-10-22T02:11:13.282Z,95101.00
2022-10-22T02:13:45.971Z,95118.97
2022-10-22T02:16:19.078Z,95115.25
2022-10-22T02:18:51.811Z,95108.56
2022-10-22T02:21:19.867Z,95105.69
2022-10-22T02:23:47.916Z,95097.91
2022-10-22T02:26:23.960Z,95103.56
2022-10-22T02:29:00.575Z,95107.78
2022-10-22T02:31:33.531Z,95117.84
2022-10-22T02:34:08.073Z,95107.44
2022-10-22T02:36:37.265Z,95110.38
2022-10-22T02:39:07.796Z,95118.56
2022-10-22T02:41:36.345Z,95122.81
2022-10-22T02:44:10.198Z,95125.44
2022-10-22T02:46:40.499Z,95129.94
2022-10-22T02:49:08.780Z,95112.44
2022-10-22T02:51:36.879Z,95103.47
2022-10-22T02:54:04.980Z,95089.28
2022-10-22T02:56:33.676Z,95087.91
2022-10-22T02:59:01.944Z,95092.13
2022-10-22T03:01:29.985Z,95095.91
2022-10-22T03:03:59.425Z,95117.19
2022-10-22T03:06:27.583Z,95119.22
2022-10-22T03:08:57.245Z,95118.69
2022-10-22T03:11:25.513Z,95128.88
2022-10-22T03:13:53.575Z,95138.28
2022-10-22T03:16:21.686Z,95129.81
2022-10-22T03:18:49.828Z,95135.03
2022-10-22T03:21:25.813Z,95134.19
2022-10-22T03:23:55.148Z,95147.47
2022-10-22T03:26:23.580Z,95134.94
2022-10-22T03:28:52.257Z,95155.84
2022-10-22T03:31:20.423Z,95151.66
2022-10-22T03:33:48.495Z,95146.63
2022-10-22T03:36:16.808Z,95155.69
2022-10-22T03:38:46.407Z,95158.25
2022-10-22T03:41:14.909Z,95145.78
2022-10-22T03:43:43.181Z,95106.31
2022-10-22T03:46:11.204Z,95149.66
2022-10-22T03:48:39.241Z,95144.84
2022-10-22T03:51:07.373Z,95131.00
2022-10-22T03:53:35.442Z,95133.75
2022-10-22T03:56:09.968Z,95137.19
2022-10-22T03:58:39.044Z,95140.63
2022-10-22T04:01:08.028Z,95132.44
2022-10-22T04:03:36.300Z,95137.50
2022-10-22T04:06:05.023Z,95131.41
2022-10-22T04:08:33.331Z,95134.88
2022-10-22T04:11:01.465Z,95131.81
2022-10-22T04:13:30.891Z,95146.63
2022-10-22T04:16:08.159Z,95146.06
2022-10-22T04:18:37.019Z,95142.44
2022-10-22T04:21:05.697Z,95156.16
2022-10-22T04:23:33.892Z,95157.75
2022-10-22T04:26:03.116Z,95164.19
2022-10-22T04:28:32.643Z,95172.47
2022-10-22T04:31:00.840Z,95174.84
2022-10-22T04:33:28.862Z,95165.00
2022-10-22T04:35:56.920Z,95170.34
2022-10-22T04:38:25.291Z,95170.59
2022-10-22T04:40:53.315Z,95172.78
2022-10-22T04:43:21.436Z,95177.47
2022-10-22T04:48:26.804Z,95170.63
2022-10-22T04:50:55.444Z,95163.50
2022-10-22T04:53:24.819Z,95165.59
2022-10-22T04:55:53.214Z,95170.63
2022-10-22T04:58:21.353Z,95164.56
2022-10-22T05:00:51.049Z,95165.31
2022-10-22T05:03:19.096Z,95164.31
2022-10-22T05:05:47.712Z,95166.97
2022-10-22T05:08:15.785Z,95157.38
2022-10-22T05:10:43.812Z,95144.69
2022-10-22T05:13:11.914Z,95139.19
2022-10-22T05:15:40.063Z,95142.78
2022-10-22T05:18:09.573Z,95143.16
2022-10-22T05:20:40.690Z,95142.91
2022-10-22T05:23:09.903Z,95131.78
2022-10-22T05:25:39.224Z,95148.13
2022-10-22T05:28:07.391Z,95155.41
2022-10-22T05:30:35.442Z,95166.44
2022-10-22T05:33:03.530Z,95175.53
2022-10-22T05:35:33.855Z,95152.13
2022-10-22T05:38:02.102Z,95178.13
2022-10-22T05:40:31.407Z,95177.66
2022-10-22T05:43:00.383Z,95160.38
2022-10-22T05:45:28.432Z,95150.22
2022-10-22T05:47:56.550Z,95152.13
2022-10-22T05:50:24.761Z,95151.00
2022-10-22T05:52:54.171Z,95151.28
2022-10-22T05:55:22.274Z,95134.34
2022-10-22T05:57:51.119Z,95123.75
2022-10-22T06:00:19.423Z,95123.75
2022-10-22T06:02:51.385Z,95113.97
2022-10-22T06:05:19.550Z,95116.34
2022-10-22T06:07:48.305Z,95136.31
2022-10-22T06:10:21.038Z,95133.09
2022-10-22T06:12:50.167Z,95139.97
2022-10-22T06:15:20.242Z,95137.56
2022-10-22T06:17:48.791Z,95148.97
2022-10-22T06:20:18.723Z,95151.63
2022-10-22T06:22:49.533Z,95162.22
2022-10-22T06:25:19.305Z,95163.31
2022-10-22T06:27:51.660Z,95168.84
2022-10-22T06:30:19.743Z,95183.19
2022-10-22T06:32:47.854Z,95192.28
2022-10-22T06:35:16.232Z,95196.50
2022-10-22T06:37:44.311Z,95205.38
2022-10-22T06:40:14.237Z,95212.31
2022-10-22T06:42:44.014Z,95213.69
2022-10-22T06:45:12.370Z,95221.84
2022-10-22T06:47:40.642Z,95234.88
2022-10-22T06:50:09.361Z,95229.38
2022-10-22T06:52:37.452Z,95231.50
2022-10-22T06:55:06.111Z,95235.25
2022-10-22T06:57:34.810Z,95230.94
2022-10-22T07:00:06.922Z,95255.38
2022-10-22T07:02:36.201Z,95247.97
2022-10-22T07:05:04.535Z,95254.72
2022-10-22T07:07:32.671Z,95257.41
2022-10-22T07:10:00.873Z,95253.19
2022-10-22T07:12:28.965Z,95259.91
2022-10-22T07:14:56.975Z,95264.19
2022-10-22T07:17:26.899Z,95270.03
2022-10-22T07:19:55.934Z,95263.13
2022-10-22T07:22:24.013Z,95270.34
2022-10-22T07:24:52.095Z,95273.28
2022-10-22T07:27:20.620Z,95282.91
2022-10-22T07:29:48.789Z,95281.66
2022-10-22T07:32:18.814Z,95279.06
2022-10-22T07:34:51.091Z,95290.28
2022-10-22T07:37:21.900Z,95301.75
2022-10-22T07:39:50.950Z,95298.06
2022-10-22T07:42:19.121Z,95307.44
2022-10-22T07:44:48.911Z,95286.53
2022-10-22T07:47:17.009Z,95315.00
2022-10-22T07:49:45.148Z,95302.25
2022-10-22T07:52:14.622Z,95309.97
2022-10-22T07:54:42.741Z,95314.50
2022-10-22T07:57:11.964Z,95316.91
2022-10-22T07:59:41.176Z,95311.81
2022-10-22T08:02:10.725Z,95307.09
2022-10-22T08:04:39.176Z,95325.97
2022-10-22T08:07:08.975Z,95323.06
2022-10-22T08:09:38.627Z,95324.59
2022-10-22T08:12:07.640Z,95330.22
2022-10-22T08:14:35.750Z,95324.63
2022-10-22T08:17:03.797Z,95333.94
2022-10-22T08:19:33.044Z,95336.00
2022-10-22T08:22:01.243Z,95331.03
2022-10-22T08:24:29.592Z,95337.34
2022-10-22T08:27:00.298Z,95347.56
2022-10-22T08:29:28.411Z,95336.38
2022-10-22T08:31:56.558Z,95339.78
2022-10-22T08:34:24.863Z,95352.88
2022-10-22T08:36:52.942Z,95354.50
2022-10-22T08:39:21.057Z,95355.31
2022-10-22T08:41:59.978Z,95348.94
2022-10-22T08:44:53.351Z,95353.47
2022-10-22T08:47:44.308Z,95352.72
2022-10-22T08:50:16.125Z,95352.94
2022-10-22T08:52:48.297Z,95367.84
2022-10-22T08:55:17.192Z,95351.91
2022-10-22T08:57:53.041Z,95353.00
2022-10-22T09:00:30.609Z,95361.25
2022-10-22T09:03:09.631Z,95367.63
2022-10-22T09:05:49.529Z,95359.94
2022-10-22T09:08:20.922Z,95362.06
2022-10-22T09:10:52.146Z,95364.72
2022-10-22T09:13:23.989Z,95355.94
2022-10-22T09:15:57.206Z,95363.91
2022-10-22T09:18:36.411Z,95368.69
2022-10-22T09:21:13.602Z,95374.25
2022-10-22T09:23:57.397Z,95363.59
2022-10-22T09:26:27.764Z,95376.69
2022-10-22T09:28:55.907Z,95378.75
2022-10-22T09:31:31.566Z,95370.28
2022-10-22T09:34:05.811Z,95369.69
2022-10-22T09:36:34.368Z,95375.56
2022-10-22T09:39:02.915Z,95385.16
2022-10-22T09:41:31.487Z,95380.63
2022-10-22T09:44:00.114Z,95388.34
2022-10-22T09:46:31.143Z,95397.56
2022-10-22T09:49:06.003Z,95397.50
2022-10-22T09:51:38.799Z,95400.09
2022-10-22T09:54:16.619Z,95385.69
2022-10-22T09:56:51.919Z,95391.00
2022-10-22T09:59:29.548Z,95397.69
2022-10-22T10:02:13.432Z,95400.84
2022-10-22T10:04:50.966Z,95396.59
2022-10-22T10:07:21.408Z,95398.50
2022-10-22T10:09:51.497Z,95395.28
2022-10-22T10:12:33.890Z,95403.06
2022-10-22T10:15:12.416Z,95399.13
2022-10-22T10:17:49.516Z,95404.19
2022-10-22T10:20:36.925Z,95399.72
2022-10-22T10:23:15.443Z,95400.00
2022-10-22T10:25:54.935Z,95405.00
2022-10-22T10:28:39.346Z,95407.38
2022-10-22T10:31:18.571Z,95407.94
2022-10-22T10:33:56.951Z,95415.88
2022-10-22T10:36:34.675Z,95405.38
2022-10-22T10:39:09.066Z,95437.38
2022-10-22T10:41:49.975Z,95395.88
2022-10-22T10:44:47.499Z,95412.13
2022-10-22T10:47:32.161Z,95407.25
2022-10-22T10:50:16.608Z,95405.88
2022-10-22T10:52:56.355Z,95409.31
2022-10-22T10:55:31.474Z,95404.78
2022-10-22T10:58:12.867Z,95410.06
2022-10-22T11:00:51.826Z,95401.81
2022-10-22T11:03:56.944Z,95411.06
2022-10-22T11:06:29.661Z,95403.56
2022-10-22T11:09:03.365Z,95405.72
2022-10-22T11:11:37.555Z,95408.41
2022-10-22T11:14:12.334Z,95408.41
2022-10-22T11:16:43.846Z,95398.59
2022-10-22T11:19:23.181Z,95407.47
2022-10-22T11:22:16.417Z,95409.22
2022-10-22T11:24:50.752Z,95412.09
2022-10-22T11:27:26.538Z,95411.06
2022-10-22T11:30:01.280Z,95410.19
2022-10-22T11:32:29.398Z,95405.91
2022-10-22T11:35:00.901Z,95409.53
2022-10-22T11:37:35.064Z,95412.97
2022-10-22T11:40:08.323Z,95401.81
2022-10-22T11:42:39.569Z,95397.97
2022-10-22T11:45:28.838Z,95400.59
2022-10-22T11:48:05.914Z,95405.41
2022-10-22T11:50:48.990Z,95390.69
2022-10-22T11:53:27.486Z,95383.34
2022-10-22T11:55:59.966Z,95381.34
2022-10-22T11:58:34.365Z,95369.81
2022-10-22T12:01:25.752Z,95374.06
2022-10-22T12:04:15.155Z,95379.50
2022-10-22T12:06:59.328Z,95375.31
2022-10-22T12:09:32.443Z,95382.66
2022-10-22T12:12:13.730Z,95380.03
2022-10-22T12:14:53.620Z,95378.72
2022-10-22T12:17:23.866Z,95381.22
2022-10-22T12:20:02.232Z,95383.94
2022-10-22T12:22:32.992Z,95383.09
2022-10-22T12:25:04.003Z,95374.91
2022-10-22T12:27:36.923Z,95373.75
2022-10-22T12:30:19.330Z,95374.22
2022-10-22T12:32:48.364Z,95364.59
2022-10-22T12:35:19.988Z,95367.66
2022-10-22T12:37:51.699Z,95363.56
2022-10-22T12:40:23.808Z,95369.06
2022-10-22T12:42:54.021Z,95363.47
2022-10-22T12:45:23.139Z,95359.72
2022-10-22T12:47:56.638Z,95368.41
2022-10-22T12:50:30.491Z,95364.53
2022-10-22T12:52:58.779Z,95365.84
2022-10-22T12:55:28.230Z,95359.19
2022-10-22T12:57:56.416Z,95364.88
2022-10-22T13:00:26.812Z,95362.00
2022-10-22T13:03:00.423Z,95366.31
2022-10-22T13:05:38.841Z,95367.19
2022-10-22T13:08:10.694Z,95349.16
2022-10-22T13:10:41.643Z,95371.16
2022-10-22T13:13:31.208Z,95364.31
2022-10-22T13:16:15.222Z,95366.97
2022-10-22T13:18:43.979Z,95360.16
2022-10-22T13:21:23.878Z,95361.28
2022-10-22T13:23:58.069Z,95361.97
2022-10-22T13:26:33.313Z,95359.38
2022-10-22T13:29:02.904Z,95362.09
2022-10-22T13:31:33.592Z,95362.78
2022-10-22T13:34:09.797Z,95355.28
2022-10-22T13:36:41.374Z,95369.63
2022-10-22T13:39:14.835Z,95369.16
2022-10-22T13:41:44.283Z,95361.16
2022-10-22T13:44:12.322Z,95366.06
2022-10-22T13:46:42.970Z,95372.66
2022-10-22T13:49:16.738Z,95360.38
2022-10-22T13:51:46.634Z,95375.69
2022-10-22T13:54:17.607Z,95369.91
2022-10-22T13:56:46.999Z,95373.38
2022-10-22T13:59:17.243Z,95372.81
2022-10-22T14:01:47.903Z,95365.13
2022-10-22T14:04:16.108Z,95372.63
2022-10-22T14:06:44.295Z,95382.72
2022-10-22T14:09:16.615Z,95381.41
2022-10-22T14:11:46.080Z,95371.63
2022-10-22T14:14:17.201Z,95375.84
2022-10-22T14:16:45.547Z,95374.47
2022-10-22T14:19:18.527Z,95381.53
2022-10-22T14:21:47.382Z,95380.09
2022-10-22T14:24:15.468Z,95377.19
2022-10-22T14:26:43.540Z,95372.50
2022-10-22T14:29:13.005Z,95375.53
2022-10-22T14:31:43.489Z,95374.53
2022-10-22T14:34:13.883Z,95378.53
2022-10-22T14:36:44.080Z,95373.47
2022-10-22T14:39:12.525Z,95367.56
2022-10-22T14:41:41.753Z,95373.81
2022-10-22T14:44:14.316Z,95378.06
2022-10-22T14:46:44.625Z,95378.66
2022-10-22T14:49:13.040Z,95368.16
2022-10-22T14:51:41.233Z,95374.81
2022-10-22T14:54:09.475Z,95373.97
2022-10-22T14:59:10.915Z,95377.41
2022-10-22T15:01:42.898Z,95378.09
2022-10-22T15:04:11.996Z,95381.56
2022-10-22T15:06:40.003Z,95370.22
2022-10-22T15:09:08.496Z,95375.59
2022-10-22T15:11:36.688Z,95375.78
2022-10-22T15:14:04.870Z,95381.81
2022-10-22T15:16:32.970Z,95384.75
2022-10-22T15:19:02.361Z,95382.72
2022-10-22T15:21:30.472Z,95393.34
2022-10-22T15:23:58.918Z,95392.41
2022-10-22T15:26:29.538Z,95399.41
2022-10-22T15:29:02.689Z,95396.38
2022-10-22T15:31:46.236Z,95405.22
2022-10-22T15:34:19.798Z,95406.63
2022-10-22T15:36:48.123Z,95407.13
2022-10-22T15:39:16.383Z,95412.75
2022-10-22T15:41:44.514Z,95412.75
2022-10-22T15:44:16.561Z,95412.50
2022-10-22T15:46:45.805Z,95413.88
2022-10-22T15:49:15.831Z,95413.22
2022-10-22T15:51:43.912Z,95430.59
2022-10-22T15:54:16.235Z,95437.56
2022-10-22T15:56:44.770Z,95439.88
2022-10-22T15:59:14.435Z,95443.13
2022-10-22T16:01:42.867Z,95449.34
2022-10-22T16:04:11.455Z,95450.06
2022-10-22T16:06:43.400Z,95449.13
2022-10-22T16:09:14.050Z,95457.34
2022-10-22T16:11:42.933Z,95451.94
2022-10-22T16:14:13.333Z,95447.03
2022-10-22T16:16:44.595Z,95449.50
2022-10-22T16:19:14.403Z,95454.97
2022-10-22T16:21:45.086Z,95463.63
2022-10-22T16:24:13.254Z,95463.72
2022-10-22T16:26:42.013Z,95456.78
2022-10-22T16:29:12.512Z,95459.75
2022-10-22T16:31:41.237Z,95458.97
